Time;durP1;ratioP1;P1;durP2;ratioP2;P2;SDS_P1;SDS_P2;PMS_P1;PMS_P2;Temp;Humidity;BMP_temperature;BMP_pressure;BME280_temperature;BME280_humidity;BME280_pressure;Samples;Min_cycle;Max_cycle;Signal;HPM_P1;HPM_P2
2023/08/31 00:02:01;;;;;;;;;5.00;5.00;;;;;20.48;57.71;100440.13;4870787;29;45396;-81
2023/08/31 00:04:27;;;;;;;;;5.25;4.50;;;;;20.50;57.24;100446.38;4870796;29;45481;-81
2023/08/31 00:06:52;;;;;;;;;5.00;5.00;;;;;20.50;57.52;100449.06;4873296;29;46959;-80
2023/08/31 00:09:18;;;;;;;;;4.00;4.00;;;;;20.52;57.49;100455.31;4873720;29;44833;-79
2023/08/31 00:11:45;;;;;;;;;4.75;3.50;;;;;20.54;57.45;100453.44;4905594;29;44742;-80
2023/08/31 00:14:10;;;;;;;;;3.67;3.67;;;;;20.53;57.49;100457.06;4892138;29;44911;-79
2023/08/31 00:16:37;;;;;;;;;4.67;4.00;;;;;20.47;57.40;100453.66;4907262;29;45324;-79
2023/08/31 00:19:05;;;;;;;;;3.00;3.00;;;;;20.60;57.90;100446.97;4908600;29;44784;-80
2023/08/31 00:21:30;;;;;;;;;5.00;5.00;;;;;20.49;57.56;100449.97;4908551;29;44890;-79
2023/08/31 00:23:56;;;;;;;;;3.67;3.00;;;;;20.52;57.45;100452.59;4891521;29;44833;-81
2023/08/31 00:26:21;;;;;;;;;4.00;2.67;;;;;20.52;57.46;100452.59;4891339;29;45510;-81
2023/08/31 00:28:47;;;;;;;;;3.00;3.00;;;;;20.53;57.54;100451.66;4884440;29;45404;-81
2023/08/31 00:31:14;;;;;;;;;4.67;3.00;;;;;20.54;57.15;100448.03;4884962;29;45416;-80
2023/08/31 00:33:39;;;;;;;;;3.00;3.00;;;;;20.47;57.42;100432.06;4884490;29;45452;-81
2023/08/31 00:36:05;;;;;;;;;3.00;3.00;;;;;20.51;57.59;100437.31;4884527;29;45393;-80
2023/08/31 00:38:33;;;;;;;;;2.67;2.67;;;;;20.43;57.61;100423.16;4867157;29;45337;-80
2023/08/31 00:41:00;;;;;;;;;2.33;2.33;;;;;20.52;57.64;100430.09;4867715;29;45399;-81
2023/08/31 00:43:26;;;;;;;;;3.33;3.33;;;;;20.39;57.83;100427.78;4867595;29;45494;-81
2023/08/31 00:45:58;;;;;;;;;4.00;3.00;;;;;20.46;58.11;100439.28;4868302;29;46367;-81
2023/08/31 00:48:24;;;;;;;;;5.00;3.67;;;;;20.38;58.21;100441.34;4868424;29;45552;-81
2023/08/31 00:50:50;;;;;;;;;3.67;3.67;;;;;20.33;58.09;100427.97;4868424;29;45520;-80
2023/08/31 00:53:17;;;;;;;;;4.00;4.00;;;;;20.41;58.03;100430.44;4885826;29;45435;-80
2023/08/31 00:55:44;;;;;;;;;3.00;3.00;;;;;20.44;58.01;100433.06;4867900;29;45796;-81
2023/08/31 00:58:10;;;;;;;;;1.75;1.75;;;;;20.33;58.23;100422.56;4885704;29;45377;-80
2023/08/31 01:03:45;;;;;;;;;2.00;2.00;;;;;20.53;57.80;100430.03;5479437;23;9816749;-81
2023/08/31 01:06:24;;;;;;;;;3.00;3.00;;;;;20.57;57.56;100431.72;4885966;29;45348;-81
2023/08/31 01:08:57;;;;;;;;;3.00;3.00;;;;;20.41;58.52;100429.56;4909196;28;46961;-80
2023/08/31 01:11:49;;;;;;;;;3.25;3.00;;;;;20.51;57.91;100431.03;4910216;28;44738;-80
2023/08/31 01:14:22;;;;;;;;;5.67;3.67;;;;;20.44;57.89;100429.44;4926457;28;44771;-79
2023/08/31 01:37:52;;;;;;;;;4.00;3.00;;;;;20.63;57.87;100449.59;5287397;23;46944;-80
2023/08/31 01:40:17;;;;;;;;;3.00;3.00;;;;;20.37;57.98;100448.53;4910166;28;47023;-80
2023/08/31 01:42:48;;;;;;;;;5.00;5.00;;;;;20.41;58.08;100445.75;4926186;28;44751;-81
2023/08/31 01:45:19;;;;;;;;;4.00;2.00;;;;;20.44;58.28;100451.97;5078419;23;45351;-81
2023/08/31 01:47:45;;;;;;;;;2.67;2.67;;;;;20.31;57.92;100439.75;4926179;28;44890;-81
2023/08/31 01:50:11;;;;;;;;;5.33;3.67;;;;;20.32;58.44;100436.09;4909106;28;47111;-80
2023/08/31 01:52:37;;;;;;;;;5.67;4.33;;;;;20.30;58.32;100438.88;4925916;28;45305;-81
2023/08/31 01:55:03;;;;;;;;;4.00;4.00;;;;;20.28;58.38;100437.13;4909807;28;44775;-80
2023/08/31 01:57:28;;;;;;;;;3.67;3.67;;;;;20.31;58.51;100445.16;4909608;29;44866;-79
2023/08/31 01:59:54;;;;;;;;;3.00;3.00;;;;;20.33;58.44;100444.16;4909833;28;47047;-79
2023/08/31 02:02:23;;;;;;;;;3.33;3.33;;;;;20.48;58.44;100453.63;4926174;28;45268;-82
2023/08/31 02:04:48;;;;;;;;;5.00;4.00;;;;;20.30;58.17;100432.56;4925834;28;44944;-81
2023/08/31 03:00:12;;;;;;;;;2.67;2.67;;;;;20.69;58.27;100440.41;5750054;23;45806;-80
2023/08/31 03:07:50;;;;;;;;;7.33;5.00;;;;;20.55;58.09;100441.69;5283544;23;45941;-78
2023/08/31 03:10:15;;;;;;;;;4.00;4.00;;;;;20.48;58.37;100447.31;4923129;28;44835;-80
2023/08/31 03:12:40;;;;;;;;;4.33;1.67;;;;;20.45;58.44;100434.81;4905024;29;45481;-80
2023/08/31 03:15:07;;;;;;;;;3.00;3.00;;;;;20.45;58.67;100442.03;5195260;23;46540;-81
2023/08/31 03:17:35;;;;;;;;;3.00;3.00;;;;;20.51;58.70;100437.31;4908674;28;44920;-80
2023/08/31 03:20:01;;;;;;;;;5.33;4.00;;;;;20.36;58.54;100437.81;4908493;28;45426;-81
2023/08/31 03:22:26;;;;;;;;;3.67;3.67;;;;;20.32;58.61;100422.59;4907731;28;45428;-80
2023/08/31 03:24:51;;;;;;;;;4.00;4.00;;;;;20.31;58.74;100434.34;4925410;28;45376;-81
2023/08/31 03:27:17;;;;;;;;;6.67;4.00;;;;;20.34;58.45;100423.44;4909173;28;45478;-80
2023/08/31 03:29:42;;;;;;;;;5.00;5.00;;;;;20.35;58.64;100428.81;4926707;28;44736;-80
2023/08/31 03:32:11;;;;;;;;;3.33;3.00;;;;;20.38;58.65;100427.84;4909642;28;45393;-81
2023/08/31 03:34:36;;;;;;;;;5.33;4.00;;;;;20.34;58.66;100428.84;4922886;28;47052;-81
2023/08/31 03:37:02;;;;;;;;;3.00;3.00;;;;;20.36;58.64;100421.59;4925714;28;45457;-80
2023/08/31 03:39:27;;;;;;;;;5.00;4.67;;;;;20.39;58.92;100424.19;4908036;28;45441;-80
2023/08/31 03:41:53;;;;;;;;;4.67;4.67;;;;;20.33;58.76;100427.09;4907567;28;45461;-81
2023/08/31 03:44:20;;;;;;;;;5.33;5.33;;;;;20.28;58.95;100431.75;4927873;28;47377;-81
2023/08/31 03:46:45;;;;;;;;;4.33;3.33;;;;;20.25;59.23;100431.84;4910523;28;45470;-81
2023/08/31 03:49:10;;;;;;;;;4.33;3.67;;;;;20.20;59.46;100426.59;4909952;28;45400;-81
2023/08/31 04:18:23;;;;;;;;;5.00;5.00;;;;;20.11;59.88;100422.34;5756417;23;46981;-79
2023/08/31 04:20:50;;;;;;;;;4.33;3.00;;;;;20.06;60.06;100431.53;4927428;28;44772;-79
2023/08/31 04:23:16;;;;;;;;;2.33;2.33;;;;;19.94;60.37;100419.28;4911172;29;44847;-79
2023/08/31 04:25:42;;;;;;;;;5.00;5.00;;;;;19.91;60.55;100424.75;4928700;28;44915;-80
2023/08/31 04:28:07;;;;;;;;;3.00;3.00;;;;;19.87;60.44;100423.09;4928610;28;45204;-79
2023/08/31 04:30:33;;;;;;;;;4.00;4.00;;;;;19.89;60.33;100427.50;4911615;28;44898;-78
2023/08/31 04:32:58;;;;;;;;;5.00;3.67;;;;;19.86;60.29;100432.13;4911912;28;44839;-80
2023/08/31 04:58:40;;;;;;;;;4.00;3.67;;;;;19.85;60.39;100449.22;5750602;23;45990;-79
2023/08/31 05:01:09;;;;;;;;;3.00;2.00;;;;;20.03;60.81;100447.81;4906285;29;45360;-79
2023/08/31 05:03:34;;;;;;;;;5.67;4.33;;;;;19.88;60.80;100451.84;4889149;29;45678;-80
2023/08/31 05:06:00;;;;;;;;;6.00;6.00;;;;;19.86;60.43;100449.19;4905803;29;46322;-81
2023/08/31 05:08:25;;;;;;;;;4.33;4.33;;;;;19.87;60.56;100456.34;4903753;28;45409;-80
2023/08/31 05:13:26;;;;;;;;;4.67;3.67;;;;;19.90;60.51;100455.41;5907727;23;46545;-81
2023/08/31 05:15:54;;;;;;;;;3.67;3.67;;;;;19.88;60.88;100449.16;4902619;28;47144;-81
2023/08/31 05:44:13;;;;;;;;;4.00;4.00;;;;;19.99;60.85;100465.91;5303776;23;45701;-80
2023/08/31 05:46:39;;;;;;;;;3.00;3.00;;;;;19.98;60.81;100466.84;4890252;29;46931;-83
2023/08/31 05:49:04;;;;;;;;;4.00;3.00;;;;;19.95;61.04;100459.69;4889378;28;45612;-83
2023/08/31 05:51:30;;;;;;;;;5.00;4.00;;;;;20.03;60.97;100467.59;4907595;29;45419;-82
2023/08/31 06:14:40;;;;;;;;;5.33;5.00;;;;;20.51;60.80;100491.34;5404225;23;46784;-80
2023/08/31 06:17:15;;;;;;;;;3.00;3.00;;;;;20.54;60.91;100488.56;4886473;29;45402;-82
2023/08/31 06:19:41;;;;;;;;;5.00;4.67;;;;;20.45;60.94;100485.25;4886364;29;45012;-82
2023/08/31 06:22:07;;;;;;;;;6.00;4.33;;;;;20.48;60.65;100488.75;4903429;29;45563;-81
2023/08/31 06:24:35;;;;;;;;;4.33;4.33;;;;;20.48;60.61;100482.44;4904486;29;45745;-82
2023/08/31 06:27:00;;;;;;;;;6.33;5.00;;;;;20.51;60.59;100483.25;4885627;29;48226;-82
2023/08/31 06:29:26;;;;;;;;;6.00;5.00;;;;;20.52;60.21;100476.00;4903654;29;45482;-82
2023/08/31 06:31:52;;;;;;;;;7.00;5.00;;;;;20.54;60.54;100491.25;4887803;29;45538;-82
2023/08/31 06:34:17;;;;;;;;;3.67;2.33;;;;;20.60;60.54;100495.59;4889482;29;45612;-81
2023/08/31 06:36:46;;;;;;;;;4.33;3.33;;;;;20.82;60.63;100490.41;4888436;29;48174;-81
2023/08/31 06:39:12;;;;;;;;;6.00;4.00;;;;;20.71;60.87;100503.38;4887551;29;45705;-82
2023/08/31 06:41:38;;;;;;;;;4.67;3.00;;;;;20.79;60.16;100501.31;4886146;29;45422;-80
2023/08/31 06:44:07;;;;;;;;;4.00;4.00;;;;;20.96;60.06;100498.94;4885165;29;45488;-81
2023/08/31 06:46:38;;;;;;;;;5.00;3.33;;;;;20.88;60.19;100498.31;4885191;29;47356;-81
2023/08/31 06:49:08;;;;;;;;;4.00;4.00;;;;;21.05;59.89;100508.59;4885146;29;45564;-81
2023/08/31 06:51:33;;;;;;;;;4.00;4.00;;;;;21.01;59.54;100493.41;4886857;29;45419;-82
2023/08/31 06:54:05;;;;;;;;;8.00;6.00;;;;;21.15;59.22;100498.34;4886475;29;45601;-81
2023/08/31 06:56:35;;;;;;;;;5.67;5.67;;;;;21.21;59.19;100502.66;4915805;28;45469;-81
2023/08/31 07:16:40;;;;;;;;;4.67;4.67;;;;;21.92;57.00;100514.63;5041914;23;46010;-80
2023/08/31 07:24:23;;;;;;;;;4.33;4.33;;;;;22.01;57.10;100527.81;5539094;23;46562;-81
2023/08/31 07:26:55;;;;;;;;;4.00;4.00;;;;;21.83;57.22;100501.41;4930180;28;44846;-80
2023/08/31 07:32:12;;;;;;;;;4.67;4.67;;;;;21.82;56.39;100483.44;5411855;23;45382;-80
2023/08/31 07:34:53;;;;;;;;;5.00;3.67;;;;;21.86;56.49;100506.75;4892356;29;44837;-80
2023/08/31 07:47:39;;;;;;;;;5.00;3.67;;;;;22.17;56.35;100507.34;5459755;23;46143;-80
2023/08/31 07:58:09;;;;;;;;;4.67;4.33;;;;;22.76;54.90;100505.09;5453753;23;46627;-81
2023/08/31 08:13:43;;;;;;;;;6.33;5.00;;;;;23.05;54.58;100494.97;5897315;23;47065;-82
2023/08/31 08:21:25;;;;;;;;;3.00;1.67;;;;;23.79;53.51;100524.38;5242331;23;45742;-83
2023/08/31 08:24:10;;;;;;;;;5.00;5.00;;;;;23.70;53.24;100496.66;4934967;28;44867;-81
2023/08/31 08:34:29;;;;;;;;;5.25;4.25;;;;;23.95;52.25;100525.44;5309870;23;46342;-81
2023/08/31 08:45:16;;;;;;;;;;;;;;;;;;;;;
2023/08/31 08:47:46;;;;;;;;;5.00;3.00;;;;;24.13;51.93;100551.78;4905926;29;68041;-82
2023/08/31 08:50:33;;;;;;;;;4.00;2.67;;;;;23.91;51.47;100502.09;4887878;29;44945;-83
2023/08/31 09:00:47;;;;;;;;;5.00;5.00;;;;;24.00;51.82;100550.59;4993064;23;45438;-83
2023/08/31 09:18:38;;;;;;;;;5.00;5.00;;;;;24.40;52.76;100542.44;4036510;27;45215;-83
2023/08/31 09:21:46;;;;;;;;;;;;;;;;;;;;;
2023/08/31 09:27:31;;;;;;;;;4.75;4.00;;;;;24.22;53.27;100533.28;4861101;29;45274;-83
2023/08/31 09:30:44;;;;;;;;;7.00;7.00;;;;;24.22;52.67;100504.31;4900552;29;44866;-80
2023/08/31 09:33:22;;;;;;;;;10.00;8.00;;;;;24.54;53.29;100516.41;4887175;29;44839;-82
2023/08/31 09:35:59;;;;;;;;;7.25;5.00;;;;;24.61;53.19;100497.09;4886438;28;44909;-82
2023/08/31 09:38:28;;;;;;;;;3.00;3.00;;;;;24.39;52.38;100486.31;4907539;28;47136;-81
2023/08/31 09:51:34;;;;;;;;;;;;;;;;;;;;;
2023/08/31 09:56:42;;;;;;;;;11.00;7.50;;;;;24.19;52.39;100501.72;5561894;23;46931;-85
2023/08/31 10:09:35;;;;;;;;;7.00;4.00;;;;;24.36;54.31;100531.72;5280660;23;46793;-82
2023/08/31 10:44:13;;;;;;;;;8.00;7.33;;;;;24.28;56.22;100516.72;4913810;29;45408;-84
2023/08/31 10:46:59;;;;;;;;;10.00;10.00;;;;;24.01;56.24;100480.84;4926065;28;44865;-83
2023/08/31 10:54:55;;;;;;;;;9.67;7.00;;;;;24.09;55.51;100474.09;4860078;23;47179;-81
2023/08/31 11:23:13;;;;;;;;;9.00;9.00;;;;;24.10;55.49;100472.28;5454920;23;47589;-82
2023/08/31 11:25:51;;;;;;;;;;;;;;;;;;;;;
2023/08/31 11:28:29;;;;;;;;;5.67;5.00;;;;;24.47;54.98;100474.13;4980877;23;68247;-81
2023/08/31 11:31:01;;;;;;;;;7.00;7.00;;;;;24.49;54.08;100441.44;4906639;28;45095;-82
2023/08/31 11:33:39;;;;;;;;;11.33;9.00;;;;;24.73;52.75;100472.88;5012929;23;45129;-82
2023/08/31 11:46:11;;;;;;;;;3.67;2.00;;;;;24.58;50.63;100475.47;4898286;28;45209;-83
2023/08/31 11:48:44;;;;;;;;;4.00;4.00;;;;;24.14;49.96;100439.44;4887872;29;45009;-82
2023/08/31 11:51:29;;;;;;;;;;;;;;;;;;;;;
2023/08/31 11:53:59;;;;;;;;;4.67;4.67;;;;;24.41;50.11;100484.41;4886413;28;67077;-82
2023/08/31 11:56:34;;;;;;;;;7.00;5.00;;;;;23.98;50.15;100460.13;4899532;28;46160;-83
2023/08/31 11:59:12;;;;;;;;;6.00;5.33;;;;;24.11;49.54;100493.91;4899757;28;45500;-82
2023/08/31 12:01:48;;;;;;;;;6.00;4.00;;;;;24.08;51.26;100491.34;4884632;29;44745;-83
2023/08/31 12:04:22;;;;;;;;;4.00;3.00;;;;;23.68;53.07;100479.53;4866624;29;44934;-81
2023/08/31 12:23:22;;;;;;;;;2.33;1.00;;;;;22.51;59.58;100462.72;5404100;23;46961;-83
2023/08/31 12:26:08;;;;;;;;;2.67;2.67;;;;;22.43;60.33;100467.56;4881734;29;44999;-82
2023/08/31 12:43:09;;;;;;;;;4.33;4.33;;;;;22.56;61.35;100455.31;5542490;23;46029;-83
2023/08/31 12:48:14;;;;;;;;;3.33;2.00;;;;;22.55;62.49;100469.78;5293692;23;46430;-83
2023/08/31 12:50:39;;;;;;;;;3.33;3.33;;;;;22.30;62.36;100463.56;5679542;23;46876;-82
2023/08/31 12:53:11;;;;;;;;;3.00;3.00;;;;;22.59;62.45;100483.25;4920313;28;44962;-84
2023/08/31 13:01:46;;;;;;;;;4.00;3.33;;;;;22.39;64.08;100468.63;5068027;23;46401;-83
2023/08/31 13:12:00;;;;;;;;;4.75;4.75;;;;;22.61;65.03;100456.94;5247641;23;45934;-82
2023/08/31 13:14:28;;;;;;;;;4.50;4.00;;;;;22.61;65.59;100456.94;4903630;28;44820;-82
2023/08/31 13:22:18;;;;;;;;;6.33;5.33;;;;;22.26;66.71;100462.81;5059577;23;46724;-81
2023/08/31 13:24:46;;;;;;;;;4.00;3.00;;;;;21.94;68.24;100413.44;4860529;29;45416;-82
2023/08/31 13:27:13;;;;;;;;;5.50;4.00;;;;;21.95;68.61;100419.75;4874588;29;44940;-82
2023/08/31 13:29:52;;;;;;;;;6.25;4.25;;;;;22.40;68.15;100448.75;4866958;29;44867;-83
2023/08/31 13:37:28;;;;;;;;;7.00;5.00;;;;;21.97;76.38;100401.59;4892084;29;44931;-83
2023/08/31 13:40:04;;;;;;;;;;;;;;;;;;;;;
2023/08/31 13:42:59;;;;;;;;;5.33;3.33;;;;;22.10;76.53;100443.53;4889993;29;74506;-84
2023/08/31 13:45:25;;;;;;;;;8.00;6.00;;;;;21.55;79.68;100389.66;4894314;29;44797;-83
2023/08/31 13:51:15;;;;;;;;;6.75;5.50;;;;;21.60;86.65;100410.25;4899745;29;44833;-83
2023/08/31 13:53:47;;;;;;;;;4.25;4.25;;;;;21.52;87.18;100427.63;4884913;29;47590;-82
2023/08/31 13:59:34;;;;;;;;;;;;;;;;;;;;;
2023/08/31 14:04:50;;;;;;;;;2.00;2.00;;;;;21.62;86.62;100384.88;4783467;27;45286;-82
2023/08/31 14:07:34;;;;;;;;;;;;;;;;;;;;;
2023/08/31 14:10:00;;;;;;;;;6.00;6.00;;;;;22.00;86.13;100411.47;4846015;29;68847;-83
2023/08/31 14:12:28;;;;;;;;;5.00;5.00;;;;;22.02;84.97;100404.16;4850166;29;44762;-84
2023/08/31 14:14:57;;;;;;;;;4.50;4.50;;;;;22.19;84.71;100385.41;4859953;29;45464;-81
2023/08/31 14:17:38;;;;;;;;;5.25;4.00;;;;;22.48;84.40;100397.81;4919943;23;44904;-84
2023/08/31 14:25:40;;;;;;;;;4.25;2.75;;;;;22.60;84.03;100384.69;5067317;23;46274;-80
2023/08/31 14:28:06;;;;;;;;;3.00;3.00;;;;;22.39;83.48;100371.09;4904690;29;44799;-82
2023/08/31 14:30:37;;;;;;;;;2.00;2.00;;;;;22.77;84.47;100382.19;4900645;29;45154;-85
2023/08/31 14:33:05;;;;;;;;;1.00;1.00;;;;;22.65;84.25;100361.88;4920237;28;45069;-82
2023/08/31 14:35:38;;;;;;;;;1.25;1.25;;;;;22.77;83.81;100369.50;4925139;28;45315;-82
2023/08/31 14:40:41;;;;;;;;;2.00;2.00;;;;;23.00;82.84;100396.56;5194795;23;45667;-81
2023/08/31 14:43:15;;;;;;;;;2.00;1.00;;;;;23.05;83.40;100397.31;4930105;28;44868;-83
2023/08/31 14:48:29;;;;;;;;;1.00;1.00;;;;;23.02;82.49;100348.59;5126760;23;45929;-81
2023/08/31 14:53:36;;;;;;;;;2.00;2.00;;;;;23.36;82.26;100370.56;4922101;23;44858;-83
2023/08/31 14:56:07;;;;;;;;;5.00;4.00;;;;;23.28;82.30;100361.88;4891589;29;46743;-81
2023/08/31 14:58:33;;;;;;;;;6.00;5.00;;;;;23.35;81.74;100384.22;4892588;29;45734;-85
2023/08/31 15:01:19;;;;;;;;;;;;;;;;;;;;;
2023/08/31 15:06:33;;;;;;;;;;;;;;;;;;;;;
2023/08/31 15:08:59;;;;;;;;;1.00;1.00;;;;;23.80;79.85;100353.22;4900559;28;72099;-83
2023/08/31 15:11:28;;;;;;;;;1.00;1.00;;;;;24.23;79.16;100381.06;4921755;28;44797;-82
2023/08/31 15:13:54;;;;;;;;;1.25;1.25;;;;;24.12;79.72;100365.28;4916467;29;45331;-80
2023/08/31 15:16:20;;;;;;;;;1.50;1.50;;;;;24.22;79.37;100371.16;4913446;29;45232;-83
2023/08/31 15:18:47;;;;;;;;;1.00;1.00;;;;;24.34;78.97;100380.56;4914286;28;44836;-83
2023/08/31 15:21:17;;;;;;;;;1.50;1.00;;;;;24.32;79.14;100387.91;4912299;28;44842;-82
2023/08/31 15:23:49;;;;;;;;;1.00;1.00;;;;;24.55;78.16;100386.78;4912483;28;44979;-82
2023/08/31 15:26:19;;;;;;;;;1.00;1.00;;;;;24.60;78.41;100386.56;4913894;28;46856;-83
2023/08/31 15:29:08;;;;;;;;;1.00;1.00;;;;;24.42;78.57;100381.06;4913064;28;45764;-80
2023/08/31 15:31:37;;;;;;;;;2.50;2.50;;;;;24.62;78.23;100368.31;4911677;28;44928;-84
2023/08/31 15:34:21;;;;;;;;;2.50;2.00;;;;;24.50;77.63;100358.94;4911636;29;45464;-84
2023/08/31 15:36:50;;;;;;;;;1.00;1.00;;;;;24.59;77.84;100369.38;4911463;29;45812;-79
2023/08/31 15:39:23;;;;;;;;;1.75;1.75;;;;;24.59;77.23;100373.94;4916448;29;44972;-85
2023/08/31 15:45:23;;;;;;;;;2.00;2.00;;;;;24.71;77.30;100378.75;4914003;29;44809;-83
2023/08/31 15:48:01;;;;;;;;;2.00;2.00;;;;;24.27;78.19;100343.75;4899465;29;46905;-82
2023/08/31 15:50:27;;;;;;;;;2.00;2.00;;;;;24.30;77.92;100362.63;4912830;28;45375;-81
2023/08/31 15:52:56;;;;;;;;;2.50;2.50;;;;;24.36;78.62;100367.78;4912025;28;44826;-83
2023/08/31 15:55:41;;;;;;;;;1.75;1.75;;;;;24.08;78.52;100333.78;4910591;29;44778;-82
2023/08/31 15:58:07;;;;;;;;;1.50;1.50;;;;;24.39;79.13;100364.00;4897961;29;45072;-82
2023/08/31 16:00:33;;;;;;;;;2.00;2.00;;;;;24.31;78.86;100357.09;4906703;28;45077;-81
2023/08/31 16:06:20;;;;;;;;;2.75;2.00;;;;;24.24;79.81;100363.81;4896259;29;44777;-82
2023/08/31 16:09:19;;;;;;;;;;;;;;;;;;;;;
2023/08/31 16:11:55;;;;;;;;;3.25;2.00;;;;;24.34;79.73;100358.81;4897161;29;44852;-82
2023/08/31 16:14:23;;;;;;;;;2.75;2.75;;;;;24.11;79.01;100333.63;4875186;29;44841;-84
2023/08/31 16:16:49;;;;;;;;;3.00;3.00;;;;;24.44;79.28;100360.13;4877599;29;44813;-82
2023/08/31 16:19:20;;;;;;;;;2.75;2.75;;;;;24.67;78.90;100355.38;4893554;29;45234;-83
2023/08/31 16:21:47;;;;;;;;;2.00;2.00;;;;;24.76;78.92;100354.91;4895193;29;44823;-83
2023/08/31 16:24:15;;;;;;;;;2.75;2.00;;;;;24.75;78.87;100356.75;4877700;29;44835;-82
2023/08/31 16:26:41;;;;;;;;;2.75;2.75;;;;;24.70;77.91;100360.66;4876937;29;44838;-81
2023/08/31 16:29:07;;;;;;;;;3.00;3.00;;;;;24.70;78.19;100350.69;4875743;29;45194;-81
2023/08/31 16:31:32;;;;;;;;;3.00;3.00;;;;;24.70;78.39;100349.78;4891538;29;45359;-82
2023/08/31 16:33:59;;;;;;;;;3.25;3.25;;;;;24.83;77.73;100353.66;4893318;29;44859;-82
2023/08/31 16:36:25;;;;;;;;;3.50;3.00;;;;;24.95;77.35;100350.28;4875637;29;44961;-82
2023/08/31 16:39:43;;;;;;;;;4.75;4.75;;;;;25.21;76.82;100350.81;4893427;29;45325;-82
2023/08/31 16:42:09;;;;;;;;;2.00;2.00;;;;;24.97;76.86;100343.91;4893404;29;44777;-82
2023/08/31 16:44:35;;;;;;;;;4.25;4.25;;;;;25.01;76.89;100342.78;4895657;29;44795;-82
2023/08/31 16:47:00;;;;;;;;;5.00;5.00;;;;;24.95;76.72;100339.41;4901212;29;44729;-81
2023/08/31 16:49:26;;;;;;;;;3.75;3.75;;;;;24.89;76.88;100331.56;4896263;29;45188;-83
2023/08/31 16:52:44;;;;;;;;;4.50;4.50;;;;;25.04;76.48;100337.16;4897591;29;44749;-83
2023/08/31 16:55:10;;;;;;;;;3.75;3.75;;;;;24.60;77.74;100330.31;4881824;29;44859;-83
2023/08/31 16:57:40;;;;;;;;;3.25;2.75;;;;;24.52;78.25;100335.28;4883557;29;44848;-82
2023/08/31 17:00:07;;;;;;;;;6.00;4.00;;;;;24.44;78.64;100338.38;4890584;29;45250;-83
2023/08/31 17:02:33;;;;;;;;;5.50;5.50;;;;;24.32;79.13;100325.41;4862183;29;44903;-82
2023/08/31 17:04:58;;;;;;;;;5.00;5.00;;;;;24.34;79.29;100329.78;4863723;29;45198;-83
2023/08/31 17:07:24;;;;;;;;;4.75;4.75;;;;;24.39;80.15;100329.56;4889535;29;44847;-82
2023/08/31 17:09:49;;;;;;;;;8.33;7.33;;;;;24.46;80.07;100333.72;4887642;29;47159;-82
2023/08/31 17:12:17;;;;;;;;;7.33;7.33;;;;;24.55;80.06;100325.13;4888736;29;44830;-82
2023/08/31 17:14:48;;;;;;;;;5.00;5.00;;;;;24.62;79.62;100319.38;4872372;29;44964;-82
2023/08/31 17:17:14;;;;;;;;;8.00;8.00;;;;;24.68;79.86;100319.06;4887732;29;45000;-83
2023/08/31 17:19:40;;;;;;;;;8.67;8.67;;;;;24.62;79.48;100320.28;4888670;29;45058;-81
2023/08/31 17:22:05;;;;;;;;;6.75;5.00;;;;;24.54;79.43;100311.59;4887390;29;44816;-81
2023/08/31 17:24:34;;;;;;;;;7.00;7.00;;;;;24.61;80.02;100315.78;4873281;29;44752;-81
2023/08/31 17:27:00;;;;;;;;;9.00;9.00;;;;;24.57;79.99;100313.31;4874054;29;45278;-81
2023/08/31 17:29:27;;;;;;;;;11.33;9.67;;;;;24.73;79.97;100306.13;4873949;29;47563;-82
2023/08/31 17:31:52;;;;;;;;;5.00;5.00;;;;;24.56;79.96;100312.41;4890465;29;44761;-81
2023/08/31 17:34:19;;;;;;;;;7.00;7.00;;;;;24.58;80.00;100313.22;4889640;29;44901;-83
2023/08/31 17:36:44;;;;;;;;;9.00;9.00;;;;;24.57;80.16;100316.03;4873273;29;44953;-83
2023/08/31 17:39:10;;;;;;;;;31.33;30.67;;;;;24.60;79.89;100321.28;4888898;29;47127;-81
2023/08/31 17:41:35;;;;;;;;;6.00;6.00;;;;;24.55;80.36;100318.81;4873300;29;44848;-81
2023/08/31 17:44:01;;;;;;;;;9.00;9.00;;;;;24.51;80.38;100326.25;4883605;29;44783;-83
2023/08/31 17:46:32;;;;;;;;;8.33;8.33;;;;;24.68;80.46;100329.94;4878948;29;44894;-83
2023/08/31 17:48:58;;;;;;;;;11.67;10.33;;;;;24.37;80.81;100334.19;4878032;29;45383;-83
2023/08/31 17:51:23;;;;;;;;;5.00;5.00;;;;;24.36;80.50;100332.44;4859861;29;44790;-83
2023/08/31 17:53:49;;;;;;;;;3.67;3.67;;;;;24.35;80.74;100338.81;4859497;29;44851;-82
2023/08/31 17:56:14;;;;;;;;;5.00;5.00;;;;;24.29;81.30;100334.56;4876240;29;44833;-83
2023/08/31 17:58:39;;;;;;;;;4.00;4.00;;;;;24.28;81.33;100337.34;4876496;29;45617;-84
2023/08/31 18:01:09;;;;;;;;;4.75;4.00;;;;;24.48;81.26;100339.97;4856722;29;44834;-82
2023/08/31 18:03:34;;;;;;;;;3.50;3.50;;;;;24.17;81.73;100338.75;4857332;29;45424;-82
2023/08/31 18:05:59;;;;;;;;;2.25;2.25;;;;;24.15;82.30;100343.38;4874197;29;44840;-83
2023/08/31 18:08:27;;;;;;;;;4.75;4.00;;;;;24.07;82.00;100345.59;4857858;29;47408;-82
2023/08/31 18:10:54;;;;;;;;;3.00;3.00;;;;;24.11;82.65;100349.91;4875230;29;44834;-84
2023/08/31 18:13:20;;;;;;;;;3.50;3.50;;;;;24.11;82.63;100352.63;4858918;29;44777;-83
2023/08/31 18:15:47;;;;;;;;;5.50;4.00;;;;;24.17;82.74;100351.47;4873951;29;44938;-82
2023/08/31 18:18:12;;;;;;;;;4.00;4.00;;;;;24.07;83.08;100348.31;4855912;29;46842;-83
2023/08/31 18:20:37;;;;;;;;;2.25;2.25;;;;;23.98;83.28;100351.47;4856461;29;44882;-83
2023/08/31 18:23:06;;;;;;;;;2.75;2.75;;;;;24.04;83.45;100353.03;4856095;29;44837;-83
2023/08/31 18:25:32;;;;;;;;;2.75;2.75;;;;;23.81;83.77;100356.81;4873866;29;45210;-83
2023/08/31 18:27:58;;;;;;;;;3.00;3.00;;;;;23.76;84.13;100368.75;4873206;29;45184;-83
2023/08/31 18:30:23;;;;;;;;;3.00;3.00;;;;;23.73;83.85;100368.00;4858085;29;45014;-83
2023/08/31 18:32:49;;;;;;;;;4.00;4.00;;;;;23.70;84.38;100365.44;4858124;29;44840;-82
2023/08/31 18:35:14;;;;;;;;;3.00;3.00;;;;;23.72;84.85;100367.13;4876334;29;44937;-82
2023/08/31 18:37:40;;;;;;;;;2.75;2.75;;;;;23.62;85.26;100367.63;4875374;29;44920;-82
2023/08/31 18:40:07;;;;;;;;;2.00;2.00;;;;;23.61;85.28;100374.88;4873187;29;45072;-81
2023/08/31 18:42:35;;;;;;;;;3.25;3.25;;;;;23.54;85.77;100370.69;4874978;29;44803;-81
2023/08/31 18:45:00;;;;;;;;;3.50;3.50;;;;;23.50;85.95;100372.66;4856338;29;44804;-83
2023/08/31 18:47:26;;;;;;;;;2.50;2.00;;;;;23.56;86.29;100383.25;4872122;29;45021;-82
2023/08/31 18:49:51;;;;;;;;;2.00;2.00;;;;;23.52;86.80;100372.59;4871648;29;44637;-83
2023/08/31 18:52:17;;;;;;;;;3.00;3.00;;;;;23.54;87.29;100384.28;4855280;29;45105;-82
2023/08/31 18:54:42;;;;;;;;;2.00;2.00;;;;;23.50;86.91;100383.53;4856925;29;44917;-84
2023/08/31 18:57:09;;;;;;;;;3.25;3.00;;;;;23.55;87.41;100392.34;4871860;29;48178;-83
2023/08/31 18:59:34;;;;;;;;;3.00;3.00;;;;;23.54;87.67;100400.56;4856335;29;44843;-84
2023/08/31 19:02:06;;;;;;;;;3.00;3.00;;;;;23.74;87.65;100403.25;4891473;29;45015;-83
2023/08/31 19:04:32;;;;;;;;;3.00;3.00;;;;;23.61;88.40;100402.03;4891237;29;44793;-83
2023/08/31 19:07:04;;;;;;;;;3.00;3.00;;;;;23.51;88.11;100406.09;4873447;29;45806;-82
2023/08/31 19:09:30;;;;;;;;;4.25;4.00;;;;;23.54;88.52;100400.56;4891828;29;44791;-83
2023/08/31 19:11:56;;;;;;;;;4.00;4.00;;;;;23.54;88.80;100415.00;4857730;29;45320;-83
2023/08/31 19:14:21;;;;;;;;;3.50;3.50;;;;;23.50;88.77;100409.78;4875354;29;44810;-83
2023/08/31 19:16:49;;;;;;;;;5.75;3.00;;;;;23.52;88.83;100413.31;4872685;29;47179;-83
2023/08/31 19:19:15;;;;;;;;;5.75;4.25;;;;;23.57;88.60;100422.13;4891828;29;44779;-83
2023/08/31 19:21:41;;;;;;;;;4.00;4.00;;;;;23.58;88.41;100426.63;4877361;29;44871;-82
2023/08/31 19:24:06;;;;;;;;;3.33;3.33;;;;;23.55;88.55;100414.06;4877677;29;44846;-83
2023/08/31 19:26:32;;;;;;;;;7.00;6.00;;;;;23.61;88.93;100423.75;4892902;29;45171;-84
2023/08/31 19:28:57;;;;;;;;;3.67;3.67;;;;;23.62;89.05;100428.25;4877482;29;44909;-84
2023/08/31 19:31:24;;;;;;;;;3.00;3.00;;;;;23.61;89.03;100428.31;4876937;29;45175;-83
2023/08/31 19:33:52;;;;;;;;;6.00;5.33;;;;;23.63;89.19;100416.44;4877126;29;45222;-83
2023/08/31 19:36:17;;;;;;;;;6.00;5.25;;;;;23.49;89.71;100418.88;4891567;29;47288;-83
2023/08/31 19:38:44;;;;;;;;;4.00;4.00;;;;;23.53;89.91;100431.34;4875956;29;49427;-83
2023/08/31 19:41:09;;;;;;;;;3.50;3.00;;;;;23.55;89.73;100424.94;4875726;29;44901;-84
2023/08/31 19:43:35;;;;;;;;;3.50;3.50;;;;;23.56;89.52;100426.69;4875533;29;44932;-83